Time;durP1;ratioP1;P1;durP2;ratioP2;P2;SDS_P1;SDS_P2;PMS_P1;PMS_P2;Temp;Humidity;BMP_temperature;BMP_pressure;BME280_temperature;BME280_humidity;BME280_pressure;Samples;Min_cycle;Max_cycle;Signal;HPM_P1;HPM_P2
2022/02/05 00:01:24;;;;;;;20.75;12.13;;;;;;;3.04;51.92;99607.50;1672001;83;21401;-56
2022/02/05 00:03:45;;;;;;;17.65;9.63;;;;;;;3.12;51.94;99609.55;1662573;84;21524;-56
2022/02/05 00:06:12;;;;;;;14.95;8.23;;;;;;;3.15;52.08;99602.63;1668587;84;21567;-56
2022/02/05 00:14:11;;;;;;;16.05;9.48;;;;;;;3.23;51.92;99578.23;1672985;85;21434;-54
2022/02/05 00:43:10;;;;;;;25.08;13.28;;;;;;;3.36;52.17;99563.78;1673341;84;21606;-56
2022/02/05 00:45:41;;;;;;;24.63;13.05;;;;;;;3.36;52.38;99571.12;1678158;85;21514;-56
2022/02/05 00:48:06;;;;;;;23.42;12.82;;;;;;;3.40;52.25;99561.55;1666854;84;22782;-56
2022/02/05 00:50:38;;;;;;;22.90;12.88;;;;;;;3.44;52.22;99570.56;1665432;84;21556;-56
2022/02/05 00:53:11;;;;;;;23.47;13.15;;;;;;;3.46;52.37;99569.25;1665880;85;21518;-56
2022/02/05 00:55:38;;;;;;;24.85;12.93;;;;;;;3.50;52.46;99557.91;1675015;84;21416;-56
2022/02/05 00:58:05;;;;;;;25.00;13.45;;;;;;;3.51;52.51;99559.65;1672983;85;21800;-56
2022/02/05 01:00:36;;;;;;;24.40;12.53;;;;;;;3.50;52.53;99557.50;1666114;85;22358;-56
2022/02/05 01:03:04;;;;;;;19.60;12.73;;;;;;;3.50;52.57;99549.70;1674228;84;21342;-55
2022/02/05 01:05:31;;;;;;;23.15;12.82;;;;;;;3.50;52.45;99536.70;1671465;84;21447;-55
2022/02/05 01:07:57;;;;;;;21.97;13.43;;;;;;;3.50;52.36;99540.59;1663656;85;21507;-55
2022/02/05 01:10:26;;;;;;;23.38;12.28;;;;;;;3.55;52.75;99544.86;1673044;85;21483;-55
2022/02/05 01:13:05;;;;;;;;;;;;;;;3.54;52.47;99533.58;1666139;85;22708;-54
2022/02/05 01:15:31;;;;;;;18.92;11.63;;;;;;;3.54;52.32;99538.78;1668148;85;20700;-55
2022/02/05 01:18:00;;;;;;;21.55;13.25;;;;;;;3.60;52.39;99543.03;1670819;84;21514;-54
2022/02/05 01:22:54;;;;;;;21.87;13.08;;;;;;;3.60;52.61;99539.13;1638607;85;21352;-55
2022/02/05 01:25:25;;;;;;;28.05;14.65;;;;;;;3.63;52.50;99537.78;1643679;85;22834;-55
2022/02/05 01:27:57;;;;;;;24.87;12.73;;;;;;;3.65;52.51;99534.27;1643584;85;21582;-55
2022/02/05 01:30:32;;;;;;;18.10;11.00;;;;;;;3.65;52.66;99535.56;1639397;85;21592;-55
2022/02/05 01:33:11;;;;;;;21.48;11.57;;;;;;;3.66;52.52;99531.25;1665270;85;21372;-55
2022/02/05 01:57:02;;;;;;;23.80;14.63;;;;;;;3.75;52.22;99523.30;1657978;85;20872;-55
2022/02/05 01:59:41;;;;;;;27.20;14.65;;;;;;;3.80;52.41;99527.95;1656513;85;21420;-55
2022/02/05 02:04:59;;;;;;;26.62;14.50;;;;;;;3.82;52.59;99530.53;1679691;83;22472;-56
2022/02/05 02:13:08;;;;;;;24.90;14.68;;;;;;;3.81;52.59;99511.93;1684842;83;20974;-55
2022/02/05 02:15:29;;;;;;;26.20;14.58;;;;;;;3.84;52.64;99518.36;1683148;83;20932;-56
2022/02/05 02:23:05;;;;;;;25.88;14.53;;;;;;;3.92;52.58;99522.13;1664504;84;21497;-56
2022/02/05 02:25:35;;;;;;;27.60;15.68;;;;;;;3.96;52.56;99523.81;1677926;84;21420;-56
2022/02/05 02:30:38;;;;;;;29.40;17.07;;;;;;;3.95;52.08;99522.94;1678616;84;22588;-55
2022/02/05 02:33:12;;;;;;;27.52;15.50;;;;;;;3.84;52.06;99526.16;1660282;85;21442;-55
2022/02/05 02:35:31;;;;;;;30.92;17.45;;;;;;;3.84;52.02;99520.55;1664191;85;21560;-56
2022/02/05 02:38:04;;;;;;;32.03;18.07;;;;;;;3.86;52.40;99522.67;1660615;84;21535;-55
2022/02/05 02:40:34;;;;;;;33.13;18.20;;;;;;;3.92;52.64;99517.80;1689656;82;21480;-55
2022/02/05 02:43:02;;;;;;;31.00;17.10;;;;;;;3.87;52.19;99523.07;1689102;83;22590;-55
2022/02/05 02:45:23;;;;;;;29.40;16.17;;;;;;;3.85;52.10;99516.19;1684196;84;21382;-55
2022/02/05 02:47:49;;;;;;;32.90;17.37;;;;;;;3.84;51.91;99517.06;1689900;84;21526;-55
2022/02/05 02:58:07;;;;;;;27.37;15.35;;;;;;;3.91;52.49;99493.96;1634849;84;22276;-56
2022/02/05 03:00:32;;;;;;;27.52;15.23;;;;;;;3.86;52.05;99488.86;1685108;83;20954;-56
2022/02/05 03:02:58;;;;;;;25.95;15.90;;;;;;;3.93;52.33;99481.78;1686422;83;21440;-56
2022/02/05 03:05:25;;;;;;;28.47;16.00;;;;;;;3.93;52.26;99481.78;1687039;83;21501;-55
2022/02/05 03:07:52;;;;;;;25.77;13.77;;;;;;;4.00;52.42;99470.38;1691790;84;22466;-56
2022/02/05 03:10:18;;;;;;;28.55;16.42;;;;;;;4.05;52.53;99472.47;1685250;83;21422;-56
2022/02/05 03:12:45;;;;;;;29.40;15.88;;;;;;;4.05;52.14;99476.78;1687247;83;21367;-56
2022/02/05 03:15:14;;;;;;;27.40;15.53;;;;;;;4.03;52.36;99468.16;1694073;83;21178;-56
2022/02/05 03:20:25;;;;;;;23.62;13.00;;;;;;;4.12;52.15;99463.23;1612864;86;22550;-55
2022/02/05 03:22:51;;;;;;;24.93;13.23;;;;;;;4.08;52.09;99472.84;1663948;82;21400;-57
2022/02/05 03:25:18;;;;;;;25.37;13.00;;;;;;;4.08;52.46;99461.98;1690093;84;21634;-56
2022/02/05 03:27:46;;;;;;;22.05;13.50;;;;;;;4.03;52.17;99469.45;1690204;82;21487;-56
2022/02/05 03:30:13;;;;;;;20.53;12.33;;;;;;;4.07;52.12;99471.14;1687918;83;21631;-55
2022/02/05 03:32:39;;;;;;;15.40;9.33;;;;;;;4.07;52.27;99469.84;1687463;83;21510;-56
2022/02/05 03:35:07;;;;;;;20.08;13.03;;;;;;;4.10;52.57;99465.86;1688958;83;21073;-55
2022/02/05 03:37:34;;;;;;;;;;;;;;;4.21;52.37;99471.71;1684667;83;20910;-55
2022/02/05 03:40:00;;;;;;;13.18;8.43;;;;;;;4.22;51.85;99468.66;1671372;84;20451;-55
2022/02/05 03:42:28;;;;;;;;;;;;;;;4.20;52.19;99470.02;1683772;84;21468;-56
2022/02/05 03:44:54;;;;;;;19.77;12.23;;;;;;;4.20;51.68;99466.11;1682474;84;22694;-55
2022/02/05 03:47:21;;;;;;;20.72;13.15;;;;;;;4.10;52.52;99457.59;1684324;82;21507;-56
2022/02/05 03:49:51;;;;;;;20.05;11.33;;;;;;;4.14;52.33;99465.36;1661435;85;21364;-56
2022/02/05 03:52:18;;;;;;;20.15;11.20;;;;;;;4.12;51.90;99467.13;1687130;84;21498;-57
2022/02/05 03:54:45;;;;;;;20.50;12.33;;;;;;;4.10;51.83;99463.25;1650480;84;21525;-56
2022/02/05 03:57:12;;;;;;;17.42;11.15;;;;;;;4.17;51.66;99470.06;1672890;83;22824;-56
2022/02/05 03:59:39;;;;;;;18.90;10.72;;;;;;;4.17;51.66;99470.06;1669788;84;21493;-56
2022/02/05 04:02:06;;;;;;;22.95;11.73;;;;;;;4.16;52.21;99466.18;1683737;84;25239;-56
2022/02/05 04:04:33;;;;;;;19.85;11.40;;;;;;;4.21;52.31;99461.75;1675459;83;21467;-56
2022/02/05 04:07:01;;;;;;;18.25;11.40;;;;;;;4.13;51.36;99462.36;1676408;85;20990;-56
2022/02/05 04:09:39;;;;;;;16.45;10.90;;;;;;;4.05;51.19;99459.45;1674640;85;22478;-56
2022/02/05 04:17:15;;;;;;;16.93;11.08;;;;;;;4.19;52.13;99444.02;1620868;85;21512;-56
2022/02/05 04:19:42;;;;;;;15.35;8.83;;;;;;;4.24;51.97;99440.43;1678437;84;21561;-56
2022/02/05 04:22:08;;;;;;;14.87;10.20;;;;;;;4.28;52.08;99430.81;1668624;85;21556;-56
2022/02/05 04:24:35;;;;;;;14.30;9.83;;;;;;;4.24;52.30;99432.62;1666737;85;20954;-57
2022/02/05 04:27:02;;;;;;;13.78;9.90;;;;;;;4.23;52.08;99428.30;1670175;85;21473;-56
2022/02/05 04:29:29;;;;;;;;;;;;;;;4.29;51.91;99428.61;1665486;85;20908;-56
2022/02/05 04:31:55;;;;;;;15.83;9.10;;;;;;;4.22;51.40;99429.62;1673736;84;20381;-56
2022/02/05 04:34:23;;;;;;;12.93;9.13;;;;;;;4.30;51.83;99431.64;1668243;85;22570;-57
2022/02/05 04:36:49;;;;;;;16.57;10.50;;;;;;;4.36;52.33;99429.36;1669328;85;21479;-56
2022/02/05 04:39:19;;;;;;;14.50;10.17;;;;;;;4.37;51.97;99425.42;1662212;85;21579;-56
2022/02/05 04:42:03;;;;;;;14.40;9.60;;;;;;;4.36;52.03;99427.59;1670170;85;20983;-56
2022/02/05 04:52:37;;;;;;;15.23;10.38;;;;;;;4.36;51.57;99437.16;1638171;85;21437;-57
2022/02/05 04:55:04;;;;;;;15.63;10.23;;;;;;;4.34;51.40;99429.84;1672105;85;21277;-56
2022/02/05 05:00:53;;;;;;;15.48;9.35;;;;;;;4.33;51.60;99419.00;1668952;85;22793;-57
2022/02/05 05:05:02;;;;;;;15.83;9.65;;;;;;;4.39;52.09;99429.27;1643064;83;22046;-56
2022/02/05 05:12:31;;;;;;;14.95;10.35;;;;;;;4.29;51.95;99430.79;1659175;84;21473;-56
2022/02/05 05:20:20;;;;;;;17.17;9.18;;;;;;;4.30;51.52;99430.34;1683746;84;21602;-56
2022/02/05 05:22:47;;;;;;;16.52;9.35;;;;;;;4.38;52.08;99436.69;1691653;82;21433;-56
2022/02/05 05:25:15;;;;;;;12.20;9.38;;;;;;;4.42;51.83;99421.41;1687806;83;22435;-55
2022/02/05 05:27:44;;;;;;;13.98;9.45;;;;;;;4.39;52.89;99409.75;1686096;84;21410;-56
2022/02/05 05:30:12;;;;;;;12.15;8.63;;;;;;;4.42;52.17;99422.70;1686351;84;21393;-55
2022/02/05 05:32:39;;;;;;;14.83;10.25;;;;;;;4.46;52.06;99429.56;1688449;84;21468;-55
2022/02/05 05:35:07;;;;;;;20.13;10.00;;;;;;;4.46;52.29;99433.05;1691754;83;21563;-54
2022/02/05 05:37:33;;;;;;;17.27;9.73;;;;;;;4.44;52.14;99441.75;1689775;84;22435;-55
2022/02/05 05:40:00;;;;;;;13.08;8.53;;;;;;;4.48;52.53;99440.38;1674860;83;21413;-54
2022/02/05 05:42:34;;;;;;;14.70;9.25;;;;;;;4.42;53.51;99437.03;1682988;84;21391;-55
2022/02/05 05:53:04;;;;;;;11.33;8.50;;;;;;;4.66;52.78;99430.44;1680076;84;21352;-55
2022/02/05 05:55:32;;;;;;;;;;;;;;;4.76;53.12;99431.09;1677660;84;21480;-54
2022/02/05 05:57:59;;;;;;;35.03;17.98;;;;;;;4.85;52.90;99430.43;1686787;84;20829;-55
2022/02/05 06:00:25;;;;;;;30.72;19.12;;;;;;;4.84;52.67;99424.83;1693466;84;21582;-57
2022/02/05 06:02:52;;;;;;;34.48;22.02;;;;;;;4.77;52.65;99418.49;1686735;82;22418;-57
2022/02/05 06:05:19;;;;;;;31.47;17.90;;;;;;;4.84;52.99;99423.95;1686186;83;21528;-56
2022/02/05 06:07:47;;;;;;;23.55;13.75;;;;;;;4.83;52.79;99415.28;1685047;84;21488;-57
2022/02/05 06:10:14;;;;;;;17.20;10.93;;;;;;;4.94;53.58;99411.59;1684079;84;21567;-57
2022/02/05 06:12:40;;;;;;;15.38;10.38;;;;;;;4.87;52.75;99406.50;1687963;83;21502;-57
2022/02/05 06:15:09;;;;;;;13.10;9.40;;;;;;;4.86;52.93;99396.14;1661450;85;22516;-58
2022/02/05 06:17:36;;;;;;;15.60;9.53;;;;;;;4.88;52.93;99409.98;1681890;84;21393;-58
2022/02/05 06:20:06;;;;;;;16.00;9.73;;;;;;;4.86;53.07;99407.41;1677166;84;21523;-57
2022/02/05 06:22:34;;;;;;;15.88;9.80;;;;;;;4.91;53.11;99406.44;1684966;83;21065;-55
2022/02/05 06:25:01;;;;;;;13.35;10.23;;;;;;;4.94;53.22;99402.47;1665382;85;21571;-54
2022/02/05 06:27:27;;;;;;;13.05;8.85;;;;;;;4.94;53.90;99394.20;1687578;83;22484;-55
2022/02/05 06:29:54;;;;;;;13.32;8.73;;;;;;;4.94;53.46;99395.50;1662514;85;21396;-56
2022/02/05 06:32:20;;;;;;;14.87;9.68;;;;;;;4.95;53.78;99398.95;1688982;84;21351;-57
2022/02/05 06:34:47;;;;;;;16.65;10.38;;;;;;;4.85;52.97;99390.05;1664901;85;21525;-55
2022/02/05 06:37:13;;;;;;;14.18;9.80;;;;;;;4.83;53.50;99381.88;1665207;85;21623;-56
2022/02/05 06:39:40;;;;;;;12.28;8.85;;;;;;;4.84;53.91;99383.56;1689434;84;22540;-56
2022/02/05 06:42:08;;;;;;;16.62;9.35;;;;;;;4.83;53.73;99390.53;1667906;85;20841;-56
2022/02/05 06:44:35;;;;;;;15.00;9.95;;;;;;;4.90;54.00;99383.45;1678115;83;21483;-56
2022/02/05 06:47:03;;;;;;;17.60;9.43;;;;;;;4.91;54.53;99378.63;1669495;84;21097;-56
2022/02/05 06:49:30;;;;;;;12.45;9.25;;;;;;;4.82;53.78;99381.45;1678968;84;21685;-56
2022/02/05 06:51:57;;;;;;;13.83;8.83;;;;;;;4.81;53.80;99372.78;1679085;84;22750;-56
2022/02/05 06:54:24;;;;;;;12.82;8.60;;;;;;;4.75;53.11;99370.78;1667668;84;21346;-56
2022/02/05 06:56:51;;;;;;;19.32;10.35;;;;;;;4.81;54.57;99371.94;1686879;82;21375;-56
2022/02/05 06:59:17;;;;;;;15.93;9.35;;;;;;;4.82;54.16;99376.23;1691165;83;21165;-56
2022/02/05 07:01:44;;;;;;;12.65;8.83;;;;;;;4.83;53.87;99384.02;1690873;82;21604;-56
2022/02/05 07:04:11;;;;;;;18.17;11.50;;;;;;;4.91;54.20;99384.29;1687209;82;22498;-57
2022/02/05 07:06:39;;;;;;;13.68;9.83;;;;;;;4.98;54.53;99387.16;1687865;84;21809;-56
2022/02/05 07:09:06;;;;;;;12.80;9.00;;;;;;;13.25;41.38;99360.41;1690334;84;21387;-56
2022/02/05 07:11:35;;;;;;;12.82;9.03;;;;;;;13.93;38.62;99359.54;1688871;82;21462;-56
2022/02/05 07:14:05;;;;;;;11.70;7.95;;;;;;;14.30;46.56;99349.34;1684077;84;22400;-56
2022/02/05 07:16:39;;;;;;;11.63;8.63;;;;;;;13.79;36.99;99350.66;1686136;82;22546;-56
2022/02/05 07:21:48;;;;;;;12.47;8.65;;;;;;;13.06;39.72;99353.20;1617588;82;21456;-56
2022/02/05 07:29:30;;;;;;;12.23;8.48;;;;;;;4.38;55.54;99365.95;1616173;87;21455;-56
2022/02/05 07:31:58;;;;;;;12.00;8.90;;;;;;;3.84;59.57;99370.11;1659966;84;21479;-56
2022/02/05 07:34:30;;;;;;;13.78;8.33;;;;;;;3.71;59.56;99359.08;1683574;83;21493;-57
2022/02/05 07:37:03;;;;;;;15.25;8.20;;;;;;;3.65;68.51;99348.81;1686828;83;21176;-56
2022/02/05 07:41:03;;;;;;;12.93;9.28;;;;;;;2.84;67.12;99346.75;1776987;78;23256;-57
2022/02/05 07:43:35;;;;;;;9.78;7.92;;;;;;;4.02;60.00;99348.93;1741102;81;20937;-57
2022/02/05 07:46:03;;;;;;;15.15;9.38;;;;;;;4.21;58.78;99345.49;1744478;80;22396;-57
2022/02/05 07:48:31;;;;;;;11.15;8.35;;;;;;;4.09;59.40;99344.47;1742191;80;21431;-57
2022/02/05 07:51:00;;;;;;;16.73;9.68;;;;;;;3.96;61.69;99336.06;1741788;80;21518;-57
2022/02/05 07:53:28;;;;;;;12.23;8.45;;;;;;;4.05;64.06;99336.29;1742852;80;21451;-58
2022/02/05 07:55:55;;;;;;;13.43;9.23;;;;;;;4.08;62.73;99327.98;1738681;80;20996;-56
2022/02/05 07:58:23;;;;;;;13.68;9.80;;;;;;;4.17;63.93;99326.94;1744292;80;22374;-57
2022/02/05 08:00:52;;;;;;;14.07;9.20;;;;;;;4.23;60.66;99321.59;1734094;80;20878;-57
2022/02/05 08:03:19;;;;;;;12.70;9.48;;;;;;;4.05;61.18;99310.27;1732910;80;21467;-57
2022/02/05 08:05:46;;;;;;;17.25;9.05;;;;;;;4.03;60.67;99308.16;1743729;80;21036;-58
2022/02/05 08:08:16;;;;;;;14.03;9.38;;;;;;;4.01;60.92;99309.52;1744364;80;21553;-58
2022/02/05 08:10:56;;;;;;;12.30;8.80;;;;;;;4.02;64.13;99306.45;1739367;80;21407;-57
2022/02/05 08:13:19;;;;;;;16.60;12.58;;;;;;;4.00;64.05;99303.03;1739508;80;21332;-57
2022/02/05 08:15:52;;;;;;;18.35;11.55;;;;;;;3.97;61.53;99297.43;1743288;80;21542;-58
2022/02/05 08:18:15;;;;;;;20.60;13.45;;;;;;;4.00;62.52;99300.44;1732050;80;21421;-58
2022/02/05 08:20:42;;;;;;;27.37;15.90;;;;;;;3.89;64.29;99304.10;1746821;80;21515;-57
2022/02/05 08:23:09;;;;;;;18.00;10.53;;;;;;;3.93;62.32;99298.39;1738532;80;22474;-57
2022/02/05 08:25:36;;;;;;;15.23;10.17;;;;;;;3.90;63.18;99290.67;1743309;80;20941;-58
2022/02/05 08:28:03;;;;;;;16.93;11.07;;;;;;;3.90;62.62;99288.92;1748641;80;21341;-56
2022/02/05 08:30:30;;;;;;;13.80;10.30;;;;;;;3.95;62.82;99281.45;1739537;80;27818;-58
2022/02/05 08:32:59;;;;;;;13.25;10.32;;;;;;;3.94;62.27;99276.70;1741891;80;21454;-57
2022/02/05 08:35:25;;;;;;;14.73;10.60;;;;;;;3.97;62.47;99266.67;1738355;80;22494;-56
2022/02/05 08:37:56;;;;;;;17.62;11.45;;;;;;;4.00;62.58;99267.91;1742679;79;21448;-56
2022/02/05 08:40:20;;;;;;;20.40;11.40;;;;;;;4.05;62.86;99275.15;1740908;80;21486;-56
2022/02/05 08:42:48;;;;;;;15.23;10.50;;;;;;;4.10;62.52;99270.71;1741733;81;21463;-55
2022/02/05 08:45:19;;;;;;;10.60;9.43;;;;;;;4.14;62.49;99278.85;1734515;80;21604;-55
2022/02/05 08:47:46;;;;;;;13.88;9.80;;;;;;;4.10;63.46;99282.42;1731527;80;22511;-56
2022/02/05 08:50:13;;;;;;;19.30;10.75;;;;;;;4.19;62.47;99278.77;1737895;80;21607;-56
2022/02/05 08:52:41;;;;;;;14.53;9.68;;;;;;;4.15;63.48;99281.03;1733294;80;21483;-56
2022/02/05 08:55:09;;;;;;;17.00;10.68;;;;;;;4.26;63.34;99281.64;1730691;82;21031;-56
2022/02/05 08:57:39;;;;;;;14.53;10.13;;;;;;;4.32;63.52;99280.20;1741813;80;21530;-56
2022/02/05 09:00:12;;;;;;;17.17;11.25;;;;;;;4.39;64.42;99280.47;1735834;80;22534;-56
2022/02/05 09:02:43;;;;;;;14.50;10.32;;;;;;;4.44;62.22;99273.38;1733047;80;21414;-57
2022/02/05 09:05:14;;;;;;;16.73;10.53;;;;;;;4.53;62.59;99272.77;1739833;81;21360;-57
2022/02/05 09:07:36;;;;;;;14.13;10.05;;;;;;;4.57;63.33;99267.44;1732292;80;20972;-57
2022/02/05 09:10:11;;;;;;;12.75;10.00;;;;;;;4.69;63.42;99266.31;1742320;80;21420;-56
2022/02/05 09:12:56;;;;;;;13.80;10.30;;;;;;;4.66;62.07;99271.58;1738518;80;22538;-57
2022/02/05 09:15:04;;;;;;;16.20;10.05;;;;;;;4.71;62.14;99265.82;1736409;80;21385;-57
2022/02/05 09:17:31;;;;;;;14.85;10.55;;;;;;;4.72;61.37;99258.85;1734092;80;21507;-56
2022/02/05 09:19:58;;;;;;;15.58;11.35;;;;;;;4.70;62.82;99251.07;1737759;80;21513;-56
2022/02/05 09:22:27;;;;;;;17.48;10.60;;;;;;;4.76;62.32;99253.97;1728376;80;21465;-57
2022/02/05 09:24:56;;;;;;;17.55;10.95;;;;;;;4.88;61.89;99251.06;1731696;82;22837;-58
2022/02/05 09:27:22;;;;;;;14.20;10.45;;;;;;;4.98;62.06;99242.56;1727869;80;21331;-57
2022/02/05 09:30:04;;;;;;;;;;;;;;;4.91;62.88;99235.34;1738315;80;21499;-57
2022/02/05 09:32:30;;;;;;;15.20;11.25;;;;;;;5.04;62.20;99225.45;1735675;80;20501;-57
2022/02/05 09:34:58;;;;;;;;;;;;;;;5.18;61.64;99212.91;1735303;80;21389;-56
2022/02/05 09:37:24;;;;;;;19.90;10.15;;;;;;;5.12;62.35;99215.66;1738416;82;22821;-56
2022/02/05 09:39:51;;;;;;;70.12;35.83;;;;;;;5.10;63.29;99216.16;1736741;80;21403;-57
2022/02/05 09:42:18;;;;;;;27.27;15.63;;;;;;;5.25;61.74;99217.06;1744095;80;21461;-55
2022/02/05 09:44:45;;;;;;;28.50;25.30;;;;;;;5.37;61.67;99213.24;1736031;80;21055;-56
2022/02/05 09:47:12;;;;;;;17.42;13.38;;;;;;;5.49;62.20;99205.52;1744517;81;21153;-56
2022/02/05 09:49:40;;;;;;;31.37;28.42;;;;;;;5.55;61.76;99210.54;1748249;80;22483;-56
2022/02/05 09:52:10;;;;;;;21.77;17.65;;;;;;;5.49;61.81;99209.88;1744421;80;21146;-56
2022/02/05 09:54:37;;;;;;;18.48;14.18;;;;;;;5.45;61.62;99199.53;1741312;81;21059;-57
2022/02/05 09:57:05;;;;;;;27.93;20.52;;;;;;;5.50;62.03;99200.72;1745026;80;21360;-56
2022/02/05 09:59:45;;;;;;;93.97;82.92;;;;;;;14.86;46.48;99182.56;1740864;80;21423;-55
2022/02/05 10:02:25;;;;;;;58.85;34.20;;;;;;;14.96;43.29;99168.61;1738014;80;21668;-58
2022/02/05 10:05:05;;;;;;;32.83;19.75;;;;;;;14.89;42.45;99188.98;1744350;80;20870;-59
2022/02/05 10:07:31;;;;;;;29.70;18.62;;;;;;;14.86;42.81;99178.59;1740984;80;21052;-56
2022/02/05 10:10:01;;;;;;;55.15;35.43;;;;;;;14.74;40.65;99170.53;1736627;80;21414;-57
2022/02/05 10:12:28;;;;;;;89.85;49.63;;;;;;;15.23;41.94;99174.27;1741716;80;20843;-58
2022/02/05 10:14:57;;;;;;;34.95;20.95;;;;;;;14.43;41.69;99170.86;1742970;80;22572;-58
2022/02/05 10:17:43;;;;;;;53.45;37.48;;;;;;;14.87;40.97;99164.43;1742523;80;21467;-58
2022/02/05 19:57:47;;;;;;;14.58;9.70;;;;;;;8.89;61.67;99125.22;1832792;77;23282;-55
2022/02/05 20:00:15;;;;;;;13.22;8.60;;;;;;;8.89;61.67;99125.22;1756621;80;20952;-55
2022/02/05 20:02:43;;;;;;;12.07;7.90;;;;;;;8.16;65.79;99137.88;1764968;79;22321;-55
2022/02/05 20:05:14;;;;;;;12.37;7.75;;;;;;;7.97;65.35;99137.77;1752513;80;21514;-55
2022/02/05 20:10:11;;;;;;;10.35;7.75;;;;;;;7.86;66.19;99139.12;1740907;81;20932;-54
2022/02/05 20:12:38;;;;;;;12.63;8.37;;;;;;;7.88;67.05;99146.45;1749859;80;21483;-54
2022/02/05 20:15:05;;;;;;;14.45;7.97;;;;;;;7.74;65.63;99142.61;1730914;81;22605;-55
2022/02/05 20:17:32;;;;;;;12.63;8.15;;;;;;;7.78;66.69;99144.20;1757715;80;21602;-55
2022/02/05 20:19:59;;;;;;;11.28;7.87;;;;;;;7.79;66.47;99137.19;1734310;81;21420;-54
2022/02/05 20:22:25;;;;;;;11.40;7.33;;;;;;;7.83;66.68;99139.23;1728473;80;21553;-55
2022/02/05 20:24:52;;;;;;;10.03;7.30;;;;;;;7.74;66.28;99134.77;1737058;80;21340;-54
2022/02/05 20:27:21;;;;;;;9.05;6.75;;;;;;;7.72;66.24;99150.11;1736288;80;22652;-54
2022/02/05 20:29:47;;;;;;;12.20;7.58;;;;;;;7.77;66.52;99141.63;1764696;80;21504;-57
2022/02/05 20:32:16;;;;;;;11.12;7.10;;;;;;;7.75;66.42;99140.37;1769535;80;21506;-55
2022/02/05 20:34:42;;;;;;;9.40;6.67;;;;;;;7.76;65.97;99145.14;1746679;79;21449;-55
2022/02/05 20:37:09;;;;;;;8.38;5.70;;;;;;;7.82;66.20;99146.23;1732420;80;20953;-54
2022/02/05 20:39:35;;;;;;;12.88;6.95;;;;;;;7.67;64.87;99147.69;1742043;80;22272;-55
2022/02/05 20:42:02;;;;;;;10.80;6.65;;;;;;;7.67;66.37;99149.46;1733603;80;21395;-55
2022/02/05 20:44:28;;;;;;;10.27;5.87;;;;;;;7.67;66.01;99156.00;1699938;80;22620;-55
2022/02/05 20:46:57;;;;;;;11.22;6.03;;;;;;;7.51;65.07;99152.64;1734199;80;20894;-55
2022/02/05 20:49:24;;;;;;;7.53;5.58;;;;;;;7.52;63.77;99160.05;1770140;79;21405;-55
2022/02/05 20:51:51;;;;;;;;;;;;;;;7.56;65.41;99166.41;1779753;80;22674;-53
2022/02/05 20:54:30;;;;;;;8.58;6.15;;;;;;;7.36;63.27;99174.14;1767198;80;20765;-55
2022/02/05 20:56:49;;;;;;;10.43;5.30;;;;;;;7.34;63.77;99176.81;1764806;79;21627;-56
2022/02/05 20:59:15;;;;;;;9.98;5.78;;;;;;;7.15;63.21;99175.33;1729678;82;21399;-55
2022/02/05 21:01:43;;;;;;;10.00;5.62;;;;;;;7.13;63.03;99184.98;1795494;78;20874;-55
2022/02/05 21:04:13;;;;;;;9.30;5.75;;;;;;;7.22;64.36;99175.97;1796823;78;22329;-55
2022/02/05 21:06:41;;;;;;;8.28;5.17;;;;;;;7.19;63.85;99176.91;1787389;78;21479;-54
2022/02/05 21:09:10;;;;;;;8.55;5.65;;;;;;;7.15;64.09;99186.25;1796410;78;20907;-54
2022/02/05 21:11:35;;;;;;;8.20;5.58;;;;;;;7.16;65.20;99186.66;1784821;78;21587;-54
2022/02/05 21:14:01;;;;;;;7.80;5.30;;;;;;;7.01;64.12;99183.67;1798956;78;21438;-55
2022/02/05 21:16:30;;;;;;;7.20;4.60;;;;;;;7.02;62.76;99194.98;1792312;78;22327;-54
2022/02/05 21:18:58;;;;;;;7.90;5.10;;;;;;;7.12;64.67;99189.84;1793828;78;21295;-55
2022/02/05 21:21:31;;;;;;;7.62;4.90;;;;;;;7.20;65.24;99189.09;1797175;78;21450;-55
2022/02/05 21:23:53;;;;;;;5.83;4.95;;;;;;;7.18;64.32;99190.07;1800703;78;21494;-55
2022/02/05 21:26:22;;;;;;;9.40;4.90;;;;;;;7.20;63.87;99195.63;1796074;78;21512;-55
2022/02/05 21:28:50;;;;;;;5.58;4.40;;;;;;;7.25;64.06;99195.91;1793504;78;22316;-55
2022/02/05 21:36:42;;;;;;;7.37;4.67;;;;;;;7.23;64.23;99195.97;1748597;78;21450;-54
2022/02/05 21:39:08;;;;;;;7.60;4.83;;;;;;;7.36;64.06;99201.14;1794543;78;21493;-54
2022/02/05 21:41:35;;;;;;;6.53;4.05;;;;;;;7.41;64.11;99197.07;1789283;78;22758;-53
2022/02/05 21:44:01;;;;;;;4.80;3.87;;;;;;;7.45;63.75;99201.73;1800654;78;21473;-54
2022/02/05 21:46:28;;;;;;;7.00;4.53;;;;;;;7.41;61.94;99201.84;1802360;78;21495;-54
2022/02/05 21:48:55;;;;;;;7.28;4.47;;;;;;;7.48;62.55;99198.98;1794825;78;21061;-54
2022/02/05 21:51:30;;;;;;;8.53;4.35;;;;;;;7.62;62.69;99199.33;1798323;78;21462;-53
2022/02/05 21:53:56;;;;;;;5.85;3.72;;;;;;;7.77;62.38;99200.05;1805154;78;22640;-53
2022/02/05 21:56:40;;;;;;;8.48;4.17;;;;;;;7.62;62.71;99199.33;1801466;78;21547;-52
2022/02/05 21:59:03;;;;;;;7.22;4.20;;;;;;;7.76;62.04;99197.05;1780859;79;21530;-52
2022/02/05 22:01:28;;;;;;;5.00;4.10;;;;;;;7.78;60.60;99195.70;1783302;78;21455;-54
2022/02/05 22:03:55;;;;;;;6.12;3.75;;;;;;;7.79;61.74;99200.84;1768218;79;21116;-54
2022/02/05 22:06:23;;;;;;;5.47;3.55;;;;;;;7.61;59.97;99202.88;1777759;79;22213;-54
2022/02/05 22:08:49;;;;;;;6.87;3.90;;;;;;;7.56;59.91;99209.58;1783603;79;21474;-53
2022/02/05 22:11:16;;;;;;;7.45;3.67;;;;;;;7.45;61.19;99201.73;1771464;79;21463;-55
2022/02/05 22:13:43;;;;;;;;;;;;;;;7.41;59.09;99204.91;1771055;79;20929;-53
2022/02/05 22:16:10;;;;;;;4.92;3.40;;;;;;;7.29;59.80;99207.96;1777986;79;20413;-54
2022/02/05 22:18:36;;;;;;;9.45;3.95;;;;;;;7.32;60.77;99206.09;1773638;79;21682;-54
2022/02/05 22:21:03;;;;;;;7.05;3.80;;;;;;;7.18;59.03;99205.77;1779689;78;20965;-53
2022/02/05 22:23:30;;;;;;;6.35;3.50;;;;;;;7.00;58.18;99204.64;1784021;79;21049;-54
2022/02/05 22:25:56;;;;;;;5.35;3.22;;;;;;;7.31;60.47;99208.76;1776634;79;21480;-54
2022/02/05 22:28:23;;;;;;;4.33;3.15;;;;;;;7.45;60.16;99198.66;1776831;79;20957;-53
2022/02/05 22:30:49;;;;;;;7.45;4.00;;;;;;;7.40;58.89;99199.27;1785227;79;21388;-54
2022/02/05 22:33:16;;;;;;;6.00;3.83;;;;;;;7.55;59.05;99201.34;1779911;79;21507;-54
2022/02/05 22:35:42;;;;;;;5.10;3.60;;;;;;;7.53;58.98;99199.21;1777939;79;21316;-54
2022/02/05 22:38:09;;;;;;;5.50;3.15;;;;;;;7.62;58.30;99191.48;1767863;79;21459;-54
2022/02/05 22:40:36;;;;;;;6.43;4.07;;;;;;;7.68;58.76;99193.86;1778564;79;21065;-53
2022/02/05 22:43:02;;;;;;;5.65;2.85;;;;;;;7.71;59.21;99201.61;1779276;78;22557;-54
2022/02/05 22:45:30;;;;;;;;;;;;;;;7.77;57.06;99198.74;1781875;79;21514;-54
2022/02/05 22:47:56;;;;;;;9.78;4.10;;;;;;;7.73;57.06;99190.62;1774074;78;20156;-53
2022/02/05 22:50:23;;;;;;;6.70;3.98;;;;;;;7.78;58.67;99183.45;1775804;79;21565;-54
2022/02/05 22:52:49;;;;;;;4.92;3.12;;;;;;;7.87;57.81;99191.38;1778885;79;20919;-54
2022/02/05 22:55:16;;;;;;;7.35;3.02;;;;;;;7.95;57.06;99189.80;1786031;79;22515;-54
2022/02/05 22:57:48;;;;;;;4.45;2.90;;;;;;;8.03;59.52;99190.34;1768592;79;21566;-54
2022/02/05 23:00:18;;;;;;;7.75;3.42;;;;;;;8.06;59.10;99189.36;1784938;78;21482;-54
2022/02/05 23:02:45;;;;;;;7.45;3.67;;;;;;;8.19;59.19;99193.19;1784425;79;21506;-54
2022/02/05 23:05:11;;;;;;;6.78;3.60;;;;;;;8.24;58.50;99185.16;1773016;79;21458;-54
2022/02/05 23:07:38;;;;;;;6.05;3.17;;;;;;;8.26;56.68;99185.48;1788486;78;22587;-54
2022/02/05 23:10:12;;;;;;;6.62;3.52;;;;;;;8.40;58.13;99181.02;1794942;79;21592;-54
2022/02/05 23:15:31;;;;;;;6.35;3.47;;;;;;;8.49;57.47;99187.66;1791809;78;21474;-54
2022/02/05 23:42:31;;;;;;;5.40;3.58;;;;;;;8.77;57.04;99209.16;1783212;79;21466;-55
2022/02/05 23:44:53;;;;;;;5.67;3.65;;;;;;;8.71;55.16;99206.80;1792929;78;21512;-54
2022/02/05 23:47:27;;;;;;;7.05;3.42;;;;;;;8.84;56.45;99200.59;1772213;79;22339;-54
2022/02/05 23:49:49;;;;;;;5.95;3.37;;;;;;;8.75;55.14;99210.16;1790564;79;21404;-54
2022/02/05 23:52:15;;;;;;;8.38;3.50;;;;;;;8.81;55.16;99207.73;1783041;78;29378;-56
2022/02/05 23:54:42;;;;;;;5.15;3.10;;;;;;;8.76;55.75;99219.27;1792670;78;21447;-54
2022/02/05 23:57:12;;;;;;;7.50;3.50;;;;;;;8.71;55.21;99215.98;1787546;78;21511;-54
2022/02/05 23:59:37;;;;;;;5.22;3.25;;;;;;;8.53;53.73;99214.98;1793235;79;22331;-56
